createdAt,value
2018-03-26T00:00:30.435Z,9.80
2018-03-26T00:02:56.890Z,9.70
2018-03-26T00:05:24.141Z,9.70
2018-03-26T00:07:50.567Z,9.70
2018-03-26T00:10:17.080Z,9.70
2018-03-26T00:12:43.616Z,9.70
2018-03-26T00:15:10.163Z,9.70
2018-03-26T00:17:36.550Z,9.70
2018-03-26T00:20:03.044Z,9.70
2018-03-26T00:22:29.581Z,9.70
2018-03-26T00:24:56.015Z,9.70
2018-03-26T00:27:22.447Z,9.70
2018-03-26T00:29:48.819Z,9.70
2018-03-26T00:32:15.259Z,9.70
2018-03-26T00:34:42.548Z,9.70
2018-03-26T00:37:08.973Z,9.70
2018-03-26T00:39:35.371Z,9.70
2018-03-26T00:42:01.800Z,9.70
2018-03-26T00:44:28.308Z,9.70
2018-03-26T00:46:54.759Z,9.70
2018-03-26T00:49:21.246Z,9.70
2018-03-26T00:51:47.640Z,9.70
2018-03-26T00:54:14.056Z,9.60
2018-03-26T00:56:40.565Z,9.60
2018-03-26T00:59:08.489Z,9.60
2018-03-26T01:01:34.891Z,9.60
2018-03-26T01:04:02.196Z,9.70
2018-03-26T01:06:28.651Z,9.60
2018-03-26T01:08:55.191Z,9.60
2018-03-26T01:11:21.824Z,9.60
2018-03-26T01:13:49.063Z,9.60
2018-03-26T01:16:15.441Z,9.60
2018-03-26T01:18:41.842Z,9.60
2018-03-26T01:21:08.242Z,9.50
2018-03-26T01:23:34.621Z,9.50
2018-03-26T01:26:01.803Z,9.50
2018-03-26T01:28:28.183Z,9.50
2018-03-26T01:30:54.599Z,9.50
2018-03-26T01:33:20.995Z,9.50
2018-03-26T01:35:48.102Z,9.50
2018-03-26T01:38:14.531Z,9.50
2018-03-26T01:40:40.978Z,9.50
2018-03-26T01:43:08.118Z,9.30
2018-03-26T01:45:34.545Z,9.30
2018-03-26T01:48:01.188Z,9.30
2018-03-26T01:50:29.065Z,9.30
2018-03-26T01:52:55.461Z,9.30
2018-03-26T01:55:21.927Z,9.30
2018-03-26T01:57:48.325Z,9.30
2018-03-26T02:00:14.791Z,9.30
2018-03-26T02:02:42.023Z,9.20
2018-03-26T02:05:08.415Z,9.20
2018-03-26T02:07:34.873Z,9.20
2018-03-26T02:10:01.336Z,9.20
2018-03-26T02:12:27.800Z,9.10
2018-03-26T02:14:54.307Z,9.20
2018-03-26T02:17:20.798Z,9.10
2018-03-26T02:19:47.203Z,9.10
2018-03-26T02:22:14.431Z,9.20
2018-03-26T02:24:40.856Z,9.20
2018-03-26T02:27:07.255Z,9.20
2018-03-26T02:29:33.639Z,9.20
2018-03-26T02:32:00.821Z,9.20
2018-03-26T02:34:27.193Z,9.20
2018-03-26T02:36:53.656Z,9.20
2018-03-26T02:39:27.073Z,9.10
2018-03-26T02:41:53.678Z,9.20
2018-03-26T02:44:20.859Z,9.10
2018-03-26T02:46:47.535Z,9.10
2018-03-26T02:49:14.093Z,9.10
2018-03-26T02:51:40.545Z,9.10
2018-03-26T02:54:07.726Z,9.00
2018-03-26T02:56:34.168Z,9.00
2018-03-26T02:59:00.652Z,9.00
2018-03-26T03:01:27.833Z,9.00
2018-03-26T03:03:54.241Z,9.00
2018-03-26T03:06:21.383Z,9.00
2018-03-26T03:08:48.549Z,9.00
2018-03-26T03:11:14.943Z,8.90
2018-03-26T03:13:41.360Z,8.90
2018-03-26T03:16:07.875Z,9.00
2018-03-26T03:18:34.291Z,9.00
2018-03-26T03:21:01.430Z,9.00
2018-03-26T03:23:28.666Z,8.90
2018-03-26T03:25:55.992Z,8.90
2018-03-26T03:28:22.454Z,8.90
2018-03-26T03:30:48.884Z,8.90
2018-03-26T03:33:15.275Z,8.90
2018-03-26T03:35:41.721Z,8.90
2018-03-26T03:38:08.155Z,8.90
2018-03-26T03:40:34.795Z,8.90
2018-03-26T03:43:01.359Z,8.90
2018-03-26T03:45:27.869Z,8.90
2018-03-26T03:47:54.275Z,8.90
2018-03-26T03:50:20.721Z,8.90
2018-03-26T03:52:47.148Z,8.90
2018-03-26T03:55:13.596Z,8.90
2018-03-26T03:57:40.006Z,8.90
2018-03-26T04:00:06.504Z,8.90
2018-03-26T04:02:32.879Z,8.90
2018-03-26T04:04:59.301Z,8.90
2018-03-26T04:07:25.703Z,8.80
2018-03-26T04:09:52.877Z,8.80
2018-03-26T04:12:19.275Z,8.80
2018-03-26T04:14:45.906Z,8.80
2018-03-26T04:17:12.289Z,8.80
2018-03-26T04:19:38.670Z,8.80
2018-03-26T04:22:05.107Z,8.80
2018-03-26T04:24:31.628Z,8.80
2018-03-26T04:26:58.174Z,8.80
2018-03-26T04:29:24.681Z,8.70
2018-03-26T04:31:51.070Z,8.70
2018-03-26T04:34:18.181Z,8.70
2018-03-26T04:36:44.646Z,8.70
2018-03-26T04:39:11.878Z,8.70
2018-03-26T04:41:38.334Z,8.70
2018-03-26T04:44:05.582Z,8.70
2018-03-26T04:46:31.995Z,8.70
2018-03-26T04:48:58.443Z,8.70
2018-03-26T04:51:25.591Z,8.70
2018-03-26T04:53:52.728Z,8.70
2018-03-26T04:56:19.157Z,8.70
2018-03-26T04:58:45.608Z,8.70
2018-03-26T05:01:12.023Z,8.70
2018-03-26T05:03:39.947Z,8.70
2018-03-26T05:06:06.388Z,8.70
2018-03-26T05:08:32.831Z,8.70
2018-03-26T05:10:59.258Z,8.70
2018-03-26T05:13:25.684Z,8.70
2018-03-26T05:15:52.156Z,8.70
2018-03-26T05:18:19.308Z,8.70
2018-03-26T05:20:45.777Z,8.70
2018-03-26T05:23:12.235Z,8.70
2018-03-26T05:25:38.635Z,8.70
2018-03-26T05:28:05.086Z,8.70
2018-03-26T05:30:31.536Z,8.70
2018-03-26T05:32:57.908Z,8.70
2018-03-26T05:35:24.359Z,8.70
2018-03-26T05:37:50.769Z,8.70
2018-03-26T05:40:17.206Z,8.60
2018-03-26T05:42:43.739Z,8.60
2018-03-26T05:45:10.215Z,8.60
2018-03-26T05:47:36.809Z,8.60
2018-03-26T05:50:03.315Z,8.60
2018-03-26T05:52:29.754Z,8.60
2018-03-26T05:54:56.938Z,8.60
2018-03-26T05:57:23.353Z,8.60
2018-03-26T05:59:49.792Z,8.70
2018-03-26T06:02:16.194Z,8.70
2018-03-26T06:04:43.398Z,8.70
2018-03-26T06:07:09.839Z,8.70
2018-03-26T06:09:36.263Z,8.70
2018-03-26T06:12:03.453Z,8.70
2018-03-26T06:14:29.883Z,8.70
2018-03-26T06:17:12.104Z,8.70
2018-03-26T06:19:38.567Z,8.70
2018-03-26T06:22:05.751Z,8.70
2018-03-26T06:24:32.912Z,8.70
2018-03-26T06:26:59.327Z,8.70
2018-03-26T06:29:26.482Z,8.80
2018-03-26T06:31:52.942Z,8.70
2018-03-26T06:34:19.380Z,8.70
2018-03-26T06:39:47.076Z,8.80
2018-03-26T06:42:13.620Z,8.80
2018-03-26T06:44:40.057Z,8.90
2018-03-26T06:47:06.607Z,8.90
2018-03-26T06:49:33.012Z,8.90
2018-03-26T06:51:59.558Z,8.90
2018-03-26T06:54:26.741Z,9.00
2018-03-26T06:56:53.924Z,9.00
2018-03-26T06:59:20.404Z,9.00
2018-03-26T07:01:47.553Z,9.00
2018-03-26T07:04:13.987Z,9.00
2018-03-26T07:06:40.387Z,9.00
2018-03-26T07:09:06.782Z,9.00
2018-03-26T07:11:33.953Z,9.10
2018-03-26T07:14:00.489Z,9.10
2018-03-26T07:16:26.972Z,9.10
2018-03-26T07:18:53.394Z,9.10
2018-03-26T07:21:20.575Z,9.20
2018-03-26T07:23:47.692Z,9.20
2018-03-26T07:26:14.145Z,9.20
2018-03-26T07:28:40.562Z,9.20
2018-03-26T07:31:07.007Z,9.20
2018-03-26T07:33:33.522Z,9.30
2018-03-26T07:35:59.973Z,9.20
2018-03-26T07:38:27.157Z,9.30
2018-03-26T07:40:53.608Z,9.30
2018-03-26T07:43:20.097Z,9.30
2018-03-26T07:45:46.532Z,9.30
2018-03-26T07:48:12.944Z,9.30
2018-03-26T07:50:39.341Z,9.30
2018-03-26T07:53:05.736Z,9.30
2018-03-26T07:55:32.918Z,9.40
2018-03-26T07:57:59.306Z,9.40
2018-03-26T08:00:25.812Z,9.40
2018-03-26T08:02:52.332Z,9.40
2018-03-26T08:05:18.775Z,9.40
2018-03-26T08:07:52.170Z,9.50
2018-03-26T08:10:18.608Z,9.50
2018-03-26T08:12:44.997Z,9.50
2018-03-26T08:15:11.467Z,9.50
2018-03-26T08:17:37.898Z,9.50
2018-03-26T08:20:04.319Z,9.60
2018-03-26T08:22:30.727Z,9.60
2018-03-26T08:24:57.876Z,9.60
2018-03-26T08:27:24.354Z,9.60
2018-03-26T08:29:50.780Z,9.70
2018-03-26T08:32:17.168Z,9.70
2018-03-26T08:34:43.567Z,9.70
2018-03-26T08:37:10.043Z,9.80
2018-03-26T08:39:36.475Z,9.80
2018-03-26T08:42:02.975Z,9.80
2018-03-26T08:44:29.406Z,9.80
2018-03-26T08:46:55.860Z,9.80
2018-03-26T08:49:22.283Z,9.90
2018-03-26T08:51:48.685Z,9.90
2018-03-26T08:54:15.075Z,9.90
2018-03-26T08:56:41.500Z,9.90
2018-03-26T08:59:08.673Z,10.00
2018-03-26T09:01:35.100Z,10.00
2018-03-26T09:04:01.504Z,10.00
2018-03-26T09:06:28.030Z,10.00
2018-03-26T09:08:55.387Z,10.00
2018-03-26T09:11:21.861Z,10.00
2018-03-26T09:13:48.298Z,10.00
2018-03-26T09:16:14.715Z,10.00
2018-03-26T09:18:41.128Z,10.00
2018-03-26T09:21:07.653Z,10.10
2018-03-26T09:23:34.801Z,10.10
2018-03-26T09:26:01.252Z,10.10
2018-03-26T09:28:27.715Z,10.20
2018-03-26T09:30:54.119Z,10.20
2018-03-26T09:33:20.633Z,10.20
2018-03-26T09:35:47.048Z,10.20
2018-03-26T09:38:13.437Z,10.20
2018-03-26T09:40:39.919Z,10.20
2018-03-26T09:43:06.467Z,10.20
2018-03-26T09:45:32.894Z,10.20
2018-03-26T09:47:59.417Z,10.20
2018-03-26T09:50:25.969Z,10.20
2018-03-26T09:52:53.146Z,10.20
2018-03-26T09:55:20.304Z,10.30
2018-03-26T09:57:46.737Z,10.30
2018-03-26T10:00:13.185Z,10.20
2018-03-26T10:02:39.630Z,10.20
2018-03-26T10:05:06.103Z,10.20
2018-03-26T10:07:32.491Z,10.20
2018-03-26T10:09:58.908Z,10.20
2018-03-26T10:12:25.384Z,10.20
2018-03-26T10:14:51.848Z,10.20
2018-03-26T10:17:19.085Z,10.10
2018-03-26T10:19:46.256Z,10.10
2018-03-26T10:22:13.405Z,10.10
2018-03-26T10:24:39.826Z,10.20
2018-03-26T10:27:06.357Z,10.20
2018-03-26T10:29:32.753Z,10.20
2018-03-26T10:31:59.327Z,10.20
2018-03-26T10:34:26.546Z,10.10
2018-03-26T10:36:52.933Z,10.10
2018-03-26T10:39:20.065Z,10.20
2018-03-26T10:41:46.552Z,10.20
2018-03-26T10:44:13.029Z,10.10
2018-03-26T10:46:40.234Z,10.10
2018-03-26T10:49:06.679Z,10.20
2018-03-26T10:51:33.121Z,10.20
2018-03-26T10:53:59.544Z,10.20
2018-03-26T10:56:26.009Z,10.20
2018-03-26T10:58:52.543Z,10.20
2018-03-26T11:01:19.078Z,10.20
2018-03-26T11:03:45.514Z,10.20
2018-03-26T11:06:12.644Z,10.20
2018-03-26T11:08:39.051Z,10.20
2018-03-26T11:11:05.743Z,10.20
2018-03-26T11:13:32.096Z,10.20
2018-03-26T11:15:58.599Z,10.10
2018-03-26T11:18:25.047Z,10.10
2018-03-26T11:20:51.463Z,10.10
2018-03-26T11:23:17.873Z,10.10
2018-03-26T11:25:44.343Z,10.10
2018-03-26T11:28:10.817Z,10.10
2018-03-26T11:30:37.226Z,10.20
2018-03-26T11:33:03.834Z,10.20
2018-03-26T11:35:30.234Z,10.10
2018-03-26T11:37:56.701Z,10.20
2018-03-26T11:40:23.901Z,10.40
2018-03-26T11:42:51.103Z,10.50
2018-03-26T11:45:18.274Z,10.60
2018-03-26T11:47:45.520Z,10.60
2018-03-26T11:50:12.837Z,10.70
2018-03-26T11:52:39.299Z,10.70
2018-03-26T11:55:06.521Z,11.00
2018-03-26T11:57:32.952Z,11.00
2018-03-26T12:00:00.209Z,11.40
2018-03-26T12:02:26.713Z,11.40
2018-03-26T12:04:53.126Z,11.60
2018-03-26T12:07:20.304Z,11.90
2018-03-26T12:09:46.748Z,11.90
2018-03-26T12:12:13.148Z,12.00
2018-03-26T12:14:39.593Z,12.10
2018-03-26T12:17:06.011Z,12.10
2018-03-26T12:19:33.147Z,12.20
2018-03-26T12:21:59.581Z,12.20
2018-03-26T12:24:39.098Z,12.40
2018-03-26T12:27:05.500Z,12.40
2018-03-26T12:29:44.551Z,12.50
2018-03-26T12:32:11.720Z,12.60
2018-03-26T12:37:45.919Z,12.70
2018-03-26T12:40:24.609Z,12.80
2018-03-26T12:42:51.101Z,12.80
2018-03-26T12:45:29.664Z,12.80
2018-03-26T12:47:56.134Z,12.70
2018-03-26T12:50:34.788Z,12.70
2018-03-26T12:53:01.972Z,12.90
2018-03-26T12:55:28.392Z,12.90
2018-03-26T12:58:07.005Z,13.00
2018-03-26T13:00:33.430Z,12.90
2018-03-26T13:02:59.857Z,12.90
2018-03-26T13:05:27.038Z,13.00
2018-03-26T13:07:53.510Z,13.00
2018-03-26T13:10:19.925Z,13.00
2018-03-26T13:12:46.395Z,12.90
2018-03-26T13:15:12.793Z,12.90
2018-03-26T13:17:39.230Z,12.80
2018-03-26T13:20:05.772Z,12.70
2018-03-26T13:22:32.179Z,12.70
2018-03-26T13:24:58.739Z,12.60
2018-03-26T13:27:25.167Z,12.60
2018-03-26T13:29:51.557Z,12.50
2018-03-26T13:32:18.853Z,12.50
2018-03-26T13:34:45.364Z,12.50
2018-03-26T13:37:11.928Z,12.60
2018-03-26T13:39:38.354Z,12.60
2018-03-26T13:42:04.828Z,12.60
2018-03-26T13:44:32.010Z,12.70
2018-03-26T13:46:58.446Z,12.70
2018-03-26T13:49:25.018Z,12.70
2018-03-26T13:51:51.467Z,12.60
2018-03-26T13:54:18.692Z,12.60
2018-03-26T13:56:45.218Z,12.60
2018-03-26T13:59:11.790Z,12.60
2018-03-26T14:01:39.052Z,12.40
2018-03-26T14:04:05.681Z,12.40
2018-03-26T14:06:32.952Z,12.40
2018-03-26T14:09:11.622Z,12.40
2018-03-26T14:11:50.467Z,12.40
2018-03-26T14:14:29.264Z,12.50
2018-03-26T14:17:08.151Z,12.50
2018-03-26T14:19:34.615Z,12.40
2018-03-26T14:22:01.094Z,12.50
2018-03-26T14:24:27.488Z,12.50
2018-03-26T14:26:53.951Z,12.50
2018-03-26T14:29:21.882Z,12.70
2018-03-26T14:31:48.338Z,12.70
2018-03-26T14:34:14.784Z,12.70
2018-03-26T14:36:41.202Z,12.70
2018-03-26T14:39:07.865Z,12.80
2018-03-26T14:41:34.485Z,12.70
2018-03-26T14:44:00.967Z,12.60
2018-03-26T14:46:27.391Z,12.60
2018-03-26T14:48:54.602Z,12.60
2018-03-26T14:51:20.996Z,12.50
2018-03-26T14:53:47.587Z,12.50
2018-03-26T14:56:14.230Z,12.40
2018-03-26T14:58:41.389Z,12.30
2018-03-26T15:01:07.900Z,12.30
2018-03-26T15:03:34.549Z,12.30
2018-03-26T15:06:00.971Z,12.30
2018-03-26T15:08:27.721Z,12.30
2018-03-26T15:10:54.239Z,12.30
2018-03-26T15:13:20.897Z,12.30
2018-03-26T15:15:48.103Z,12.40
2018-03-26T15:18:14.567Z,12.40
2018-03-26T15:20:40.951Z,12.40
2018-03-26T15:23:07.356Z,12.40
2018-03-26T15:25:33.808Z,12.50
2018-03-26T15:28:00.236Z,12.60
2018-03-26T15:30:27.847Z,12.50
2018-03-26T15:32:54.381Z,12.60
2018-03-26T15:35:20.849Z,12.50
2018-03-26T15:37:47.330Z,12.50
2018-03-26T15:40:13.789Z,12.50
2018-03-26T15:42:40.166Z,12.50
2018-03-26T15:45:06.621Z,12.50
2018-03-26T15:47:33.079Z,12.40
2018-03-26T15:49:59.506Z,12.30
2018-03-26T15:52:25.992Z,12.30
2018-03-26T15:54:53.432Z,12.20
2018-03-26T15:57:20.626Z,12.20
2018-03-26T15:59:47.104Z,12.10
2018-03-26T16:02:13.670Z,12.10
2018-03-26T16:04:40.143Z,12.10
2018-03-26T16:07:06.576Z,12.00
2018-03-26T16:09:33.055Z,11.90
2018-03-26T16:11:59.507Z,11.80
2018-03-26T16:14:25.936Z,11.70
2018-03-26T16:16:53.158Z,11.50
2018-03-26T16:19:19.538Z,11.60
2018-03-26T16:21:45.952Z,11.50
2018-03-26T16:24:12.378Z,11.40
2018-03-26T16:26:39.593Z,11.40
2018-03-26T16:29:06.009Z,11.40
2018-03-26T16:31:32.448Z,11.30
2018-03-26T16:33:58.855Z,11.30
2018-03-26T16:36:25.314Z,11.20
2018-03-26T16:38:51.793Z,11.20
2018-03-26T16:41:31.148Z,11.10
2018-03-26T16:43:58.474Z,11.10
2018-03-26T16:46:24.882Z,11.10
2018-03-26T16:48:51.422Z,11.10
2018-03-26T16:51:17.908Z,11.00
2018-03-26T16:53:45.098Z,11.00
2018-03-26T16:56:11.666Z,11.00
2018-03-26T16:58:38.917Z,11.00
2018-03-26T17:01:05.307Z,11.00
2018-03-26T17:03:31.723Z,11.00
2018-03-26T17:05:58.204Z,10.90
2018-03-26T17:08:25.470Z,10.80
2018-03-26T17:10:51.978Z,10.80
2018-03-26T17:13:18.435Z,10.80
2018-03-26T17:15:44.868Z,10.70
2018-03-26T17:18:11.305Z,10.70
2018-03-26T17:20:37.707Z,10.70
2018-03-26T17:23:04.183Z,10.60
2018-03-26T17:25:31.403Z,10.60
2018-03-26T17:27:58.041Z,10.60
2018-03-26T17:30:24.497Z,10.60
2018-03-26T17:32:50.931Z,10.50
2018-03-26T17:35:18.115Z,10.40
2018-03-26T17:37:44.552Z,10.50
2018-03-26T17:40:11.016Z,10.40
2018-03-26T17:42:37.448Z,10.40
2018-03-26T17:45:03.930Z,10.30
2018-03-26T17:47:31.115Z,10.10
2018-03-26T17:49:57.912Z,10.10
2018-03-26T17:52:24.375Z,10.00
2018-03-26T17:54:50.827Z,9.90
2018-03-26T17:57:17.267Z,9.90
2018-03-26T17:59:43.739Z,9.90
2018-03-26T18:02:10.182Z,9.80
2018-03-26T18:04:37.389Z,9.80
2018-03-26T18:07:03.819Z,9.70
2018-03-26T18:09:30.286Z,9.80
2018-03-26T18:11:56.736Z,9.70
2018-03-26T18:14:24.054Z,9.60
2018-03-26T18:16:50.467Z,9.60
2018-03-26T18:19:16.913Z,9.60
2018-03-26T18:21:43.381Z,9.50
2018-03-26T18:24:09.801Z,9.50
2018-03-26T18:26:36.259Z,9.50
2018-03-26T18:29:02.736Z,9.50
2018-03-26T18:31:29.166Z,9.50
2018-03-26T18:33:55.674Z,9.50
2018-03-26T18:36:22.175Z,9.50
2018-03-26T18:38:48.602Z,9.50
2018-03-26T18:41:15.144Z,9.40
2018-03-26T18:43:41.786Z,9.40
2018-03-26T18:46:09.009Z,9.30
2018-03-26T18:48:35.464Z,9.30
2018-03-26T18:51:01.989Z,9.30
2018-03-26T18:53:28.412Z,9.30
2018-03-26T18:55:54.911Z,9.30
2018-03-26T18:58:21.352Z,9.30
2018-03-26T19:00:47.774Z,9.30
2018-03-26T19:03:14.218Z,9.30
2018-03-26T19:05:40.783Z,9.30
2018-03-26T19:08:07.221Z,9.30
2018-03-26T19:10:33.866Z,9.30
2018-03-26T19:13:00.331Z,9.30
2018-03-26T19:15:26.842Z,9.30
2018-03-26T19:17:53.395Z,9.30
2018-03-26T19:20:20.638Z,9.30
2018-03-26T19:22:47.869Z,9.20
2018-03-26T19:25:14.403Z,9.20
2018-03-26T19:27:40.864Z,9.20
2018-03-26T19:30:08.088Z,9.20
2018-03-26T19:32:34.596Z,9.20
2018-03-26T19:35:01.051Z,9.20
2018-03-26T19:37:27.609Z,9.20
2018-03-26T19:39:54.866Z,9.20
2018-03-26T19:42:21.307Z,9.20
2018-03-26T19:44:48.652Z,9.10
2018-03-26T19:47:15.261Z,9.10
2018-03-26T19:49:41.721Z,9.10
2018-03-26T19:52:08.256Z,9.10
2018-03-26T19:54:35.473Z,9.00
2018-03-26T19:57:01.847Z,9.00
2018-03-26T19:59:28.374Z,9.00
2018-03-26T20:01:55.540Z,9.00
2018-03-26T20:04:21.965Z,9.00
2018-03-26T20:06:49.119Z,9.00
2018-03-26T20:09:16.339Z,8.90
2018-03-26T20:11:42.790Z,8.90
2018-03-26T20:14:09.176Z,8.90
2018-03-26T20:16:35.679Z,8.90
2018-03-26T20:19:02.859Z,8.90
2018-03-26T20:21:29.323Z,8.80
2018-03-26T20:23:55.786Z,8.80
2018-03-26T20:26:22.970Z,8.80
2018-03-26T20:28:49.392Z,8.80
2018-03-26T20:31:15.946Z,8.80
2018-03-26T20:33:42.342Z,8.80
2018-03-26T20:36:08.810Z,8.70
2018-03-26T20:38:35.244Z,8.70
2018-03-26T20:41:01.699Z,8.70
2018-03-26T20:43:28.119Z,8.60
2018-03-26T20:45:54.695Z,8.50
2018-03-26T20:48:21.131Z,8.50
2018-03-26T20:50:47.542Z,8.40
2018-03-26T20:53:14.081Z,8.30
2018-03-26T20:55:40.498Z,8.20
2018-03-26T20:58:06.964Z,8.10
2018-03-26T21:00:34.203Z,7.90
2018-03-26T21:03:00.684Z,7.90
2018-03-26T21:05:34.218Z,7.80
2018-03-26T21:08:00.770Z,7.80
2018-03-26T21:10:27.195Z,7.70
2018-03-26T21:12:53.586Z,7.70
2018-03-26T21:15:20.038Z,7.70
2018-03-26T21:17:46.462Z,7.60
2018-03-26T21:20:12.862Z,7.60
2018-03-26T21:22:39.319Z,7.50
2018-03-26T21:25:05.745Z,7.50
2018-03-26T21:27:32.221Z,7.50
2018-03-26T21:29:59.586Z,7.30
2018-03-26T21:32:26.144Z,7.20
2018-03-26T21:34:52.625Z,7.20
2018-03-26T21:37:19.851Z,7.10
2018-03-26T21:39:46.410Z,7.10
2018-03-26T21:42:12.872Z,7.00
2018-03-26T21:44:39.311Z,7.00
2018-03-26T21:47:05.732Z,6.90
2018-03-26T21:49:32.251Z,6.80
2018-03-26T21:51:58.871Z,6.70
2018-03-26T21:54:25.411Z,6.70
2018-03-26T21:56:51.899Z,6.60
2018-03-26T21:59:18.346Z,6.50
2018-03-26T22:01:45.589Z,6.40
2018-03-26T22:04:12.807Z,6.40
2018-03-26T22:06:39.274Z,6.30
2018-03-26T22:09:05.718Z,6.40
2018-03-26T22:11:32.166Z,6.30
2018-03-26T22:13:58.651Z,6.40
2018-03-26T22:16:25.070Z,6.30
2018-03-26T22:18:51.543Z,6.10
2018-03-26T22:21:18.075Z,6.20
2018-03-26T22:23:44.547Z,6.20
2018-03-26T22:26:11.019Z,6.20
2018-03-26T22:28:37.683Z,6.20
2018-03-26T22:31:04.220Z,6.20
2018-03-26T22:33:30.617Z,6.10
2018-03-26T22:35:57.164Z,6.10
2018-03-26T22:38:23.626Z,6.00
2018-03-26T22:40:50.810Z,5.90
2018-03-26T22:43:17.397Z,5.90
2018-03-26T22:45:43.919Z,5.90
2018-03-26T22:48:10.337Z,5.80
2018-03-26T22:50:36.779Z,5.80
2018-03-26T22:53:03.211Z,5.70
2018-03-26T22:55:29.590Z,5.60
2018-03-26T22:57:56.414Z,5.60
2018-03-26T23:00:22.842Z,5.50
2018-03-26T23:02:49.242Z,5.40
2018-03-26T23:05:15.714Z,5.40
2018-03-26T23:07:42.151Z,5.30
2018-03-26T23:10:09.334Z,5.30
2018-03-26T23:12:35.765Z,5.30
2018-03-26T23:15:02.271Z,5.30
2018-03-26T23:17:29.414Z,5.30
2018-03-26T23:19:55.839Z,5.30
2018-03-26T23:22:34.754Z,5.30
2018-03-26T23:25:01.282Z,5.30
2018-03-26T23:27:27.818Z,5.30
2018-03-26T23:29:54.279Z,5.20
2018-03-26T23:32:20.691Z,5.00
2018-03-26T23:34:47.083Z,5.00
2018-03-26T23:37:13.536Z,4.90
2018-03-26T23:39:40.013Z,4.90
2018-03-26T23:42:06.426Z,4.80
2018-03-26T23:44:32.870Z,4.70
2018-03-26T23:47:00.047Z,4.80
2018-03-26T23:49:27.186Z,4.70
2018-03-26T23:51:54.532Z,4.60
2018-03-26T23:54:21.715Z,4.60
2018-03-26T23:56:48.102Z,4.60
2018-03-26T23:59:14.509Z,4.70
